sensor_id;sensor_type;location;lat;lon;timestamp;pressure;altitude;pressure_sealevel;temperature;humidity
53916;BME280;39827;49.652;18.770;2022-09-13T00:00:55;96450.16;;;9.73;100.00
53916;BME280;39827;49.652;18.770;2022-09-13T00:03:21;96451.72;;;9.69;100.00
53916;BME280;39827;49.652;18.770;2022-09-13T00:05:48;96451.03;;;9.84;100.00
53916;BME280;39827;49.652;18.770;2022-09-13T00:08:14;96447.47;;;9.68;100.00
53916;BME280;39827;49.652;18.770;2022-09-13T00:10:40;96450.16;;;9.73;100.00
53916;BME280;39827;49.652;18.770;2022-09-13T00:13:07;96445.56;;;9.63;100.00
53916;BME280;39827;49.652;18.770;2022-09-13T00:15:33;96435.16;;;9.46;100.00
53916;BME280;39827;49.652;18.770;2022-09-13T00:17:59;96440.78;;;9.60;100.00
53916;BME280;39827;49.652;18.770;2022-09-13T00:20:25;96430.44;;;9.53;100.00
53916;BME280;39827;49.652;18.770;2022-09-13T00:22:50;96439.09;;;9.76;100.00
53916;BME280;39827;49.652;18.770;2022-09-13T00:25:16;96441.00;;;9.86;100.00
53916;BME280;39827;49.652;18.770;2022-09-13T00:27:42;96437.78;;;9.78;100.00
53916;BME280;39827;49.652;18.770;2022-09-13T00:30:09;96437.53;;;9.80;100.00
53916;BME280;39827;49.652;18.770;2022-09-13T00:32:35;96432.13;;;9.64;100.00
53916;BME280;39827;49.652;18.770;2022-09-13T00:35:01;96425.13;;;9.53;100.00
53916;BME280;39827;49.652;18.770;2022-09-13T00:37:27;96427.28;;;9.56;100.00
53916;BME280;39827;49.652;18.770;2022-09-13T00:39:52;96422.47;;;9.48;100.00
53916;BME280;39827;49.652;18.770;2022-09-13T00:42:24;96423.72;;;9.73;100.00
53916;BME280;39827;49.652;18.770;2022-09-13T00:48:14;96429.72;;;9.30;100.00
53916;BME280;39827;49.652;18.770;2022-09-13T00:53:04;96428.38;;;9.60;100.00
53916;BME280;39827;49.652;18.770;2022-09-13T00:55:36;96424.44;;;9.30;100.00
53916;BME280;39827;49.652;18.770;2022-09-13T00:58:06;96427.97;;;9.41;100.00
53916;BME280;39827;49.652;18.770;2022-09-13T01:00:33;96420.44;;;9.28;100.00
53916;BME280;39827;49.652;18.770;2022-09-13T01:03:02;96415.59;;;9.47;100.00
53916;BME280;39827;49.652;18.770;2022-09-13T01:05:36;96424.03;;;9.49;100.00
53916;BME280;39827;49.652;18.770;2022-09-13T01:08:03;96422.03;;;9.61;100.00
53916;BME280;39827;49.652;18.770;2022-09-13T01:10:36;96423.34;;;9.59;100.00
53916;BME280;39827;49.652;18.770;2022-09-13T01:13:15;96422.78;;;9.51;100.00
53916;BME280;39827;49.652;18.770;2022-09-13T01:15:42;96412.94;;;9.47;100.00
53916;BME280;39827;49.652;18.770;2022-09-13T01:18:08;96429.53;;;9.42;100.00
53916;BME280;39827;49.652;18.770;2022-09-13T01:37:34;96419.94;;;9.31;100.00
53916;BME280;39827;49.652;18.770;2022-09-13T01:40:47;96412.50;;;9.55;100.00
53916;BME280;39827;49.652;18.770;2022-09-13T01:46:49;96398.47;;;9.22;100.00
53916;BME280;39827;49.652;18.770;2022-09-13T01:48:59;96395.09;;;8.99;100.00
53916;BME280;39827;49.652;18.770;2022-09-13T01:51:31;96394.69;;;9.12;100.00
53916;BME280;39827;49.652;18.770;2022-09-13T01:54:03;96393.28;;;9.05;100.00
53916;BME280;39827;49.652;18.770;2022-09-13T01:57:01;96388.56;;;9.39;100.00
53916;BME280;39827;49.652;18.770;2022-09-13T01:59:37;96387.41;;;9.25;100.00
53916;BME280;39827;49.652;18.770;2022-09-13T02:02:12;96380.16;;;9.15;100.00
53916;BME280;39827;49.652;18.770;2022-09-13T02:04:52;96388.47;;;8.96;100.00
53916;BME280;39827;49.652;18.770;2022-09-13T02:07:22;96383.47;;;9.00;100.00
53916;BME280;39827;49.652;18.770;2022-09-13T02:09:55;96380.78;;;9.22;100.00
53916;BME280;39827;49.652;18.770;2022-09-13T02:12:25;96380.59;;;9.34;100.00
53916;BME280;39827;49.652;18.770;2022-09-13T02:15:03;96375.94;;;9.14;100.00
53916;BME280;39827;49.652;18.770;2022-09-13T02:17:36;96378.38;;;9.21;100.00
53916;BME280;39827;49.652;18.770;2022-09-13T02:20:07;96365.63;;;9.12;100.00
53916;BME280;39827;49.652;18.770;2022-09-13T02:22:37;96373.91;;;8.94;100.00
53916;BME280;39827;49.652;18.770;2022-09-13T02:25:09;96365.16;;;9.21;100.00
53916;BME280;39827;49.652;18.770;2022-09-13T02:27:37;96359.56;;;8.84;100.00
53916;BME280;39827;49.652;18.770;2022-09-13T02:30:07;96365.44;;;8.92;100.00
53916;BME280;39827;49.652;18.770;2022-09-13T02:32:56;96364.41;;;8.93;100.00
53916;BME280;39827;49.652;18.770;2022-09-13T02:35:59;96361.16;;;8.85;100.00
53916;BME280;39827;49.652;18.770;2022-09-13T02:38:30;96360.50;;;9.01;100.00
53916;BME280;39827;49.652;18.770;2022-09-13T02:41:02;96355.69;;;8.92;100.00
53916;BME280;39827;49.652;18.770;2022-09-13T02:43:39;96339.34;;;8.95;100.00
53916;BME280;39827;49.652;18.770;2022-09-13T02:49:00;96347.69;;;9.15;100.00
53916;BME280;39827;49.652;18.770;2022-09-13T02:59:22;96352.09;;;8.76;100.00
53916;BME280;39827;49.652;18.770;2022-09-13T03:01:53;96343.81;;;8.95;100.00
53916;BME280;39827;49.652;18.770;2022-09-13T03:04:21;96341.53;;;8.76;100.00
53916;BME280;39827;49.652;18.770;2022-09-13T03:06:48;96342.97;;;8.39;100.00
53916;BME280;39827;49.652;18.770;2022-09-13T03:09:13;96337.50;;;8.46;100.00
53916;BME280;39827;49.652;18.770;2022-09-13T03:20:05;96336.56;;;8.57;100.00
53916;BME280;39827;49.652;18.770;2022-09-13T03:25:18;96314.13;;;8.82;100.00
53916;BME280;39827;49.652;18.770;2022-09-13T03:28:01;96317.69;;;8.98;100.00
53916;BME280;39827;49.652;18.770;2022-09-13T03:30:29;96318.47;;;8.94;100.00
53916;BME280;39827;49.652;18.770;2022-09-13T03:33:19;96316.94;;;9.03;100.00
53916;BME280;39827;49.652;18.770;2022-09-13T03:35:56;96311.94;;;9.07;100.00
53916;BME280;39827;49.652;18.770;2022-09-13T03:38:32;96315.00;;;8.93;100.00
53916;BME280;39827;49.652;18.770;2022-09-13T03:41:18;96316.47;;;8.79;100.00
53916;BME280;39827;49.652;18.770;2022-09-13T03:44:05;96324.47;;;8.89;100.00
53916;BME280;39827;49.652;18.770;2022-09-13T03:46:37;96320.66;;;8.52;100.00
53916;BME280;39827;49.652;18.770;2022-09-13T03:49:08;96318.88;;;8.53;100.00
53916;BME280;39827;49.652;18.770;2022-09-13T03:51:35;96315.66;;;8.78;100.00
53916;BME280;39827;49.652;18.770;2022-09-13T03:54:04;96311.44;;;8.77;100.00
53916;BME280;39827;49.652;18.770;2022-09-13T03:56:30;96310.34;;;8.51;100.00
53916;BME280;39827;49.652;18.770;2022-09-13T03:58:56;96309.00;;;8.48;100.00
53916;BME280;39827;49.652;18.770;2022-09-13T04:01:23;96311.16;;;8.51;100.00
53916;BME280;39827;49.652;18.770;2022-09-13T04:03:49;96311.16;;;8.51;100.00
53916;BME280;39827;49.652;18.770;2022-09-13T04:06:14;96305.28;;;8.44;100.00
53916;BME280;39827;49.652;18.770;2022-09-13T04:08:40;96303.63;;;8.60;100.00
53916;BME280;39827;49.652;18.770;2022-09-13T04:11:05;96309.41;;;8.57;100.00
53916;BME280;39827;49.652;18.770;2022-09-13T04:13:31;96309.00;;;8.48;100.00
53916;BME280;39827;49.652;18.770;2022-09-13T04:16:01;96299.50;;;8.69;100.00
53916;BME280;39827;49.652;18.770;2022-09-13T04:18:27;96310.56;;;8.66;100.00
53916;BME280;39827;49.652;18.770;2022-09-13T04:20:55;96313.69;;;8.41;100.00
53916;BME280;39827;49.652;18.770;2022-09-13T04:23:22;96304.19;;;8.62;100.00
53916;BME280;39827;49.652;18.770;2022-09-13T04:25:47;96309.25;;;8.69;100.00
53916;BME280;39827;49.652;18.770;2022-09-13T04:28:12;96313.91;;;8.62;100.00
53916;BME280;39827;49.652;18.770;2022-09-13T04:30:38;96319.22;;;8.39;100.00
53916;BME280;39827;49.652;18.770;2022-09-13T04:33:03;96321.72;;;8.51;100.00
53916;BME280;39827;49.652;18.770;2022-09-13T04:35:29;96324.66;;;8.77;100.00
53916;BME280;39827;49.652;18.770;2022-09-13T04:37:55;96312.53;;;8.81;100.00
53916;BME280;39827;49.652;18.770;2022-09-13T04:40:23;96316.88;;;8.43;100.00
53916;BME280;39827;49.652;18.770;2022-09-13T04:42:48;96309.53;;;8.45;100.00
53916;BME280;39827;49.652;18.770;2022-09-13T04:45:13;96309.22;;;8.64;100.00
53916;BME280;39827;49.652;18.770;2022-09-13T04:47:39;96322.84;;;8.55;100.00
53916;BME280;39827;49.652;18.770;2022-09-13T04:50:05;96314.44;;;8.58;100.00
53916;BME280;39827;49.652;18.770;2022-09-13T04:52:31;96316.97;;;8.76;100.00
53916;BME280;39827;49.652;18.770;2022-09-13T04:54:57;96314.38;;;8.81;100.00
53916;BME280;39827;49.652;18.770;2022-09-13T04:57:26;96307.34;;;8.92;100.00
53916;BME280;39827;49.652;18.770;2022-09-13T04:59:51;96314.31;;;9.03;100.00
53916;BME280;39827;49.652;18.770;2022-09-13T05:02:16;96307.22;;;9.09;100.00
53916;BME280;39827;49.652;18.770;2022-09-13T05:04:42;96303.00;;;8.75;100.00
53916;BME280;39827;49.652;18.770;2022-09-13T05:07:07;96306.78;;;8.57;100.00
53916;BME280;39827;49.652;18.770;2022-09-13T05:09:33;96308.59;;;8.84;100.00
53916;BME280;39827;49.652;18.770;2022-09-13T05:11:58;96323.81;;;9.04;100.00
53916;BME280;39827;49.652;18.770;2022-09-13T05:14:24;96316.38;;;9.01;100.00
53916;BME280;39827;49.652;18.770;2022-09-13T05:16:49;96313.56;;;8.75;100.00
53916;BME280;39827;49.652;18.770;2022-09-13T05:19:15;96312.03;;;8.84;100.00
53916;BME280;39827;49.652;18.770;2022-09-13T05:21:40;96312.19;;;9.05;100.00
53916;BME280;39827;49.652;18.770;2022-09-13T05:24:05;96307.06;;;9.21;100.00
53916;BME280;39827;49.652;18.770;2022-09-13T05:26:31;96302.63;;;9.27;100.00
53916;BME280;39827;49.652;18.770;2022-09-13T05:28:58;96300.22;;;9.25;100.00
53916;BME280;39827;49.652;18.770;2022-09-13T05:31:29;96288.72;;;9.42;100.00
53916;BME280;39827;49.652;18.770;2022-09-13T05:33:58;96301.94;;;9.47;100.00
53916;BME280;39827;49.652;18.770;2022-09-13T05:36:24;96300.22;;;9.25;100.00
53916;BME280;39827;49.652;18.770;2022-09-13T05:38:54;96305.72;;;9.18;100.00
53916;BME280;39827;49.652;18.770;2022-09-13T05:41:19;96307.25;;;9.52;100.00
53916;BME280;39827;49.652;18.770;2022-09-13T05:43:45;96302.00;;;9.57;100.00
53916;BME280;39827;49.652;18.770;2022-09-13T05:46:15;96302.59;;;9.70;100.00
53916;BME280;39827;49.652;18.770;2022-09-13T05:48:41;96301.28;;;9.67;100.00
53916;BME280;39827;49.652;18.770;2022-09-13T05:53:37;96305.38;;;9.90;100.00
53916;BME280;39827;49.652;18.770;2022-09-13T05:56:07;96305.88;;;9.93;100.00
53916;BME280;39827;49.652;18.770;2022-09-13T05:58:33;96300.91;;;10.01;100.00
53916;BME280;39827;49.652;18.770;2022-09-13T06:01:02;96297.53;;;10.16;100.00
53916;BME280;39827;49.652;18.770;2022-09-13T06:03:27;96303.94;;;10.36;100.00
53916;BME280;39827;49.652;18.770;2022-09-13T06:05:56;96301.66;;;10.61;100.00
53916;BME280;39827;49.652;18.770;2022-09-13T06:08:27;96299.84;;;10.87;100.00
53916;BME280;39827;49.652;18.770;2022-09-13T06:10:58;96293.22;;;10.95;100.00
53916;BME280;39827;49.652;18.770;2022-09-13T06:13:25;96302.50;;;11.08;100.00
53916;BME280;39827;49.652;18.770;2022-09-13T06:15:51;96313.88;;;11.34;99.87
53916;BME280;39827;49.652;18.770;2022-09-13T06:18:17;96313.06;;;11.50;99.54
53916;BME280;39827;49.652;18.770;2022-09-13T06:20:43;96309.59;;;11.70;98.35
53916;BME280;39827;49.652;18.770;2022-09-13T06:23:09;96309.06;;;11.68;98.60
53916;BME280;39827;49.652;18.770;2022-09-13T06:25:34;96319.00;;;12.28;96.65
53916;BME280;39827;49.652;18.770;2022-09-13T06:28:00;96325.59;;;12.81;94.09
53916;BME280;39827;49.652;18.770;2022-09-13T06:30:25;96324.72;;;13.90;88.05
53916;BME280;39827;49.652;18.770;2022-09-13T06:32:50;96329.63;;;14.90;83.09
53916;BME280;39827;49.652;18.770;2022-09-13T06:35:16;96329.50;;;15.81;80.38
53916;BME280;39827;49.652;18.770;2022-09-13T06:37:42;96326.16;;;16.82;76.06
53916;BME280;39827;49.652;18.770;2022-09-13T06:40:08;96328.16;;;17.36;73.47
53916;BME280;39827;49.652;18.770;2022-09-13T06:42:35;96330.44;;;17.75;71.82
53916;BME280;39827;49.652;18.770;2022-09-13T06:45:00;96323.53;;;18.14;72.40
53916;BME280;39827;49.652;18.770;2022-09-13T06:47:26;96328.19;;;18.84;72.85
53916;BME280;39827;49.652;18.770;2022-09-13T06:49:51;96328.38;;;18.88;69.20
53916;BME280;39827;49.652;18.770;2022-09-13T06:52:16;96323.16;;;19.27;67.87
53916;BME280;39827;49.652;18.770;2022-09-13T06:54:42;96307.94;;;19.58;62.59
53916;BME280;39827;49.652;18.770;2022-09-13T06:57:08;96307.38;;;19.82;60.84
53916;BME280;39827;49.652;18.770;2022-09-13T06:59:33;96306.16;;;20.10;58.48
53916;BME280;39827;49.652;18.770;2022-09-13T07:01:59;96309.63;;;20.19;59.06
53916;BME280;39827;49.652;18.770;2022-09-13T07:04:24;96318.69;;;20.05;58.80
53916;BME280;39827;49.652;18.770;2022-09-13T07:06:50;96307.34;;;20.00;60.12
53916;BME280;39827;49.652;18.770;2022-09-13T07:09:18;96317.00;;;20.22;58.91
53916;BME280;39827;49.652;18.770;2022-09-13T07:11:44;96308.28;;;20.55;58.48
53916;BME280;39827;49.652;18.770;2022-09-13T07:14:22;96305.50;;;20.64;58.71
53916;BME280;39827;49.652;18.770;2022-09-13T07:16:48;96317.34;;;20.72;58.22
53916;BME280;39827;49.652;18.770;2022-09-13T07:19:21;96310.03;;;21.37;56.21
53916;BME280;39827;49.652;18.770;2022-09-13T07:21:48;96309.94;;;21.12;55.52
53916;BME280;39827;49.652;18.770;2022-09-13T07:24:15;96303.03;;;21.35;54.96
53916;BME280;39827;49.652;18.770;2022-09-13T07:26:40;96306.81;;;21.68;54.97
53916;BME280;39827;49.652;18.770;2022-09-13T07:29:09;96303.16;;;22.23;53.04
53916;BME280;39827;49.652;18.770;2022-09-13T07:31:38;96301.38;;;21.90;53.05
53916;BME280;39827;49.652;18.770;2022-09-13T07:34:10;96303.16;;;22.23;53.81
53916;BME280;39827;49.652;18.770;2022-09-13T07:36:36;96304.13;;;21.68;53.93
53916;BME280;39827;49.652;18.770;2022-09-13T07:39:03;96303.38;;;22.18;54.07
53916;BME280;39827;49.652;18.770;2022-09-13T07:41:30;96312.25;;;22.56;53.31
53916;BME280;39827;49.652;18.770;2022-09-13T07:43:57;96313.47;;;22.99;52.43
53916;BME280;39827;49.652;18.770;2022-09-13T07:46:27;96320.09;;;23.59;50.26
53916;BME280;39827;49.652;18.770;2022-09-13T07:48:56;96318.03;;;23.85;50.09
53916;BME280;39827;49.652;18.770;2022-09-13T07:51:29;96320.00;;;24.36;48.11
53916;BME280;39827;49.652;18.770;2022-09-13T07:53:57;96322.00;;;23.59;48.97
53916;BME280;39827;49.652;18.770;2022-09-13T07:56:29;96320.31;;;24.15;47.52
53916;BME280;39827;49.652;18.770;2022-09-13T07:58:55;96327.19;;;22.65;52.97
53916;BME280;39827;49.652;18.770;2022-09-13T08:04:18;96304.28;;;22.09;56.34
53916;BME280;39827;49.652;18.770;2022-09-13T08:06:44;96311.47;;;22.55;53.19
53916;BME280;39827;49.652;18.770;2022-09-13T08:09:11;96301.25;;;22.36;54.26
53916;BME280;39827;49.652;18.770;2022-09-13T08:11:42;96296.75;;;22.15;55.55
53916;BME280;39827;49.652;18.770;2022-09-13T08:14:09;96297.75;;;22.35;55.51
53916;BME280;39827;49.652;18.770;2022-09-13T08:16:35;96301.91;;;22.99;54.32
53916;BME280;39827;49.652;18.770;2022-09-13T08:19:03;96309.97;;;23.88;51.93
53916;BME280;39827;49.652;18.770;2022-09-13T08:21:37;96309.22;;;24.56;49.55
53916;BME280;39827;49.652;18.770;2022-09-13T08:24:04;96295.97;;;24.51;46.60
53916;BME280;39827;49.652;18.770;2022-09-13T08:26:31;96300.75;;;24.05;50.56
53916;BME280;39827;49.652;18.770;2022-09-13T08:29:03;96302.31;;;24.78;47.35
53916;BME280;39827;49.652;18.770;2022-09-13T08:31:29;96303.59;;;24.65;48.93
53916;BME280;39827;49.652;18.770;2022-09-13T08:33:55;96293.50;;;25.21;47.12
53916;BME280;39827;49.652;18.770;2022-09-13T08:36:22;96294.06;;;25.30;46.01
53916;BME280;39827;49.652;18.770;2022-09-13T08:38:56;96294.44;;;24.89;46.03
53916;BME280;39827;49.652;18.770;2022-09-13T08:46:48;96287.88;;;25.30;44.29
53916;BME280;39827;49.652;18.770;2022-09-13T08:51:50;96288.38;;;24.76;44.94
53916;BME280;39827;49.652;18.770;2022-09-13T08:54:18;96289.94;;;24.22;45.66
53916;BME280;39827;49.652;18.770;2022-09-13T08:57:05;96282.69;;;24.45;46.76
53916;BME280;39827;49.652;18.770;2022-09-13T08:59:53;96281.41;;;25.15;45.03
53916;BME280;39827;49.652;18.770;2022-09-13T09:05:20;96280.19;;;25.12;44.00
53916;BME280;39827;49.652;18.770;2022-09-13T09:10:31;96277.59;;;25.19;44.94
53916;BME280;39827;49.652;18.770;2022-09-13T09:13:05;96279.00;;;25.33;43.40
53916;BME280;39827;49.652;18.770;2022-09-13T09:15:37;96266.06;;;25.22;41.62
53916;BME280;39827;49.652;18.770;2022-09-13T09:18:34;96264.34;;;24.75;44.18
53916;BME280;39827;49.652;18.770;2022-09-13T09:21:02;96273.91;;;24.68;46.17
53916;BME280;39827;49.652;18.770;2022-09-13T09:23:36;96271.47;;;25.22;45.02
53916;BME280;39827;49.652;18.770;2022-09-13T09:29:00;96260.88;;;25.37;41.99
53916;BME280;39827;49.652;18.770;2022-09-13T09:34:14;96275.00;;;25.93;41.78
53916;BME280;39827;49.652;18.770;2022-09-13T09:37:33;96254.56;;;25.99;41.89
53916;BME280;39827;49.652;18.770;2022-09-13T09:39:39;96259.56;;;26.86;38.68
53916;BME280;39827;49.652;18.770;2022-09-13T09:42:16;96252.56;;;27.19;40.80
53916;BME280;39827;49.652;18.770;2022-09-13T09:44:50;96251.66;;;27.08;38.14
53916;BME280;39827;49.652;18.770;2022-09-13T09:47:22;96251.75;;;27.15;38.32
53916;BME280;39827;49.652;18.770;2022-09-13T09:49:58;96250.59;;;26.82;38.72
53916;BME280;39827;49.652;18.770;2022-09-13T09:53:00;96255.34;;;27.64;37.05
53916;BME280;39827;49.652;18.770;2022-09-13T09:55:28;96256.97;;;27.76;35.63
53916;BME280;39827;49.652;18.770;2022-09-13T10:00:27;96248.06;;;27.34;35.36
53916;BME280;39827;49.652;18.770;2022-09-13T10:02:56;96245.34;;;28.35;34.96
53916;BME280;39827;49.652;18.770;2022-09-13T10:05:22;96247.28;;;28.31;37.35
53916;BME280;39827;49.652;18.770;2022-09-13T10:07:56;96248.13;;;27.41;35.24
53916;BME280;39827;49.652;18.770;2022-09-13T10:13:03;96250.19;;;28.04;35.78
53916;BME280;39827;49.652;18.770;2022-09-13T10:15:31;96244.72;;;27.10;36.19
53916;BME280;39827;49.652;18.770;2022-09-13T10:18:22;96246.44;;;26.91;36.42
53916;BME280;39827;49.652;18.770;2022-09-13T10:21:04;96240.03;;;26.15;37.61
53916;BME280;39827;49.652;18.770;2022-09-13T10:23:34;96236.69;;;26.52;36.74
53916;BME280;39827;49.652;18.770;2022-09-13T10:28:27;96241.88;;;27.37;35.78
53916;BME280;39827;49.652;18.770;2022-09-13T10:30:57;96250.59;;;27.16;34.58
53916;BME280;39827;49.652;18.770;2022-09-13T10:33:42;96244.84;;;26.87;35.05
53916;BME280;39827;49.652;18.770;2022-09-13T10:36:22;96238.91;;;27.53;36.53
53916;BME280;39827;49.652;18.770;2022-09-13T10:38:58;96241.25;;;28.07;35.88
53916;BME280;39827;49.652;18.770;2022-09-13T10:41:30;96236.91;;;27.95;34.80
53916;BME280;39827;49.652;18.770;2022-09-13T10:44:01;96235.59;;;28.34;34.38
53916;BME280;39827;49.652;18.770;2022-09-13T10:46:31;96243.75;;;28.31;35.69
53916;BME280;39827;49.652;18.770;2022-09-13T10:48:58;96237.94;;;28.36;34.20
53916;BME280;39827;49.652;18.770;2022-09-13T10:54:19;96225.00;;;27.17;36.26
53916;BME280;39827;49.652;18.770;2022-09-13T10:56:46;96228.44;;;28.12;35.38
53916;BME280;39827;49.652;18.770;2022-09-13T10:59:25;96219.75;;;26.97;39.21
53916;BME280;39827;49.652;18.770;2022-09-13T11:02:26;96218.72;;;27.58;37.94
53916;BME280;39827;49.652;18.770;2022-09-13T11:10:30;96221.03;;;26.42;35.29
53916;BME280;39827;49.652;18.770;2022-09-13T11:13:30;96203.22;;;27.58;36.43
53916;BME280;39827;49.652;18.770;2022-09-13T11:27:16;96206.97;;;27.43;36.40
53916;BME280;39827;49.652;18.770;2022-09-13T11:30:07;96205.19;;;28.18;34.57
53916;BME280;39827;49.652;18.770;2022-09-13T11:38:44;96193.75;;;28.86;33.30
53916;BME280;39827;49.652;18.770;2022-09-13T11:52:49;96181.19;;;27.22;32.01
53916;BME280;39827;49.652;18.770;2022-09-13T11:55:21;96160.56;;;26.79;33.68
53916;BME280;39827;49.652;18.770;2022-09-13T11:57:52;96150.09;;;27.19;32.54
53916;BME280;39827;49.652;18.770;2022-09-13T12:00:25;96146.84;;;26.31;36.98
53916;BME280;39827;49.652;18.770;2022-09-13T12:05:40;96147.22;;;27.50;34.52
53916;BME280;39827;49.652;18.770;2022-09-13T12:08:17;96150.88;;;26.82;33.29
53916;BME280;39827;49.652;18.770;2022-09-13T12:10:57;96143.78;;;26.05;35.69
53916;BME280;39827;49.652;18.770;2022-09-13T12:13:26;96136.19;;;25.33;35.15
53916;BME280;39827;49.652;18.770;2022-09-13T12:15:56;96126.94;;;24.25;37.68
53916;BME280;39827;49.652;18.770;2022-09-13T12:18:42;96115.28;;;24.44;36.96
53916;BME280;39827;49.652;18.770;2022-09-13T12:21:11;96118.94;;;24.32;37.94
53916;BME280;39827;49.652;18.770;2022-09-13T12:23:42;96128.19;;;25.68;36.81
53916;BME280;39827;49.652;18.770;2022-09-13T12:26:41;96126.41;;;26.10;37.03
53916;BME280;39827;49.652;18.770;2022-09-13T12:31:43;96115.78;;;25.97;36.87
53916;BME280;39827;49.652;18.770;2022-09-13T12:34:16;96119.66;;;26.27;35.01
53916;BME280;39827;49.652;18.770;2022-09-13T12:47:19;96094.13;;;26.01;37.92
53916;BME280;39827;49.652;18.770;2022-09-13T12:53:10;96080.53;;;25.40;38.09
53916;BME280;39827;49.652;18.770;2022-09-13T12:58:56;96083.22;;;24.89;38.05
53916;BME280;39827;49.652;18.770;2022-09-13T13:01:29;96077.16;;;24.72;38.89
53916;BME280;39827;49.652;18.770;2022-09-13T13:04:00;96060.56;;;24.31;40.37
53916;BME280;39827;49.652;18.770;2022-09-13T13:07:00;96087.09;;;24.88;43.23
53916;BME280;39827;49.652;18.770;2022-09-13T13:09:41;96079.59;;;24.58;40.39
53916;BME280;39827;49.652;18.770;2022-09-13T13:12:44;96074.63;;;24.60;41.07
53916;BME280;39827;49.652;18.770;2022-09-13T13:17:50;96067.81;;;25.71;42.83
53916;BME280;39827;49.652;18.770;2022-09-13T13:26:09;96059.97;;;24.65;43.79
53916;BME280;39827;49.652;18.770;2022-09-13T13:34:01;96049.31;;;23.89;43.47
53916;BME280;39827;49.652;18.770;2022-09-13T13:38:54;96049.81;;;23.75;41.62
53916;BME280;39827;49.652;18.770;2022-09-13T13:43:58;96059.19;;;24.41;40.57
53916;BME280;39827;49.652;18.770;2022-09-13T13:48:52;96053.97;;;23.53;43.68
53916;BME280;39827;49.652;18.770;2022-09-13T13:51:20;96043.13;;;23.33;43.62
53916;BME280;39827;49.652;18.770;2022-09-13T13:54:58;96044.78;;;23.22;46.78
53916;BME280;39827;49.652;18.770;2022-09-13T13:56:47;96034.88;;;22.77;48.54
53916;BME280;39827;49.652;18.770;2022-09-13T13:59:25;96031.59;;;23.00;45.91
53916;BME280;39827;49.652;18.770;2022-09-13T14:01:54;96029.50;;;22.94;48.78
53916;BME280;39827;49.652;18.770;2022-09-13T14:07:23;96017.50;;;22.14;53.97
53916;BME280;39827;49.652;18.770;2022-09-13T14:10:17;96012.31;;;22.37;55.05
53916;BME280;39827;49.652;18.770;2022-09-13T14:18:28;96004.59;;;22.07;54.20
53916;BME280;39827;49.652;18.770;2022-09-13T14:21:21;95999.59;;;22.38;55.81
53916;BME280;39827;49.652;18.770;2022-09-13T14:23:47;96004.34;;;22.12;57.52
53916;BME280;39827;49.652;18.770;2022-09-13T14:26:13;96004.31;;;21.96;57.36
53916;BME280;39827;49.652;18.770;2022-09-13T14:28:39;95997.94;;;22.17;55.79
53916;BME280;39827;49.652;18.770;2022-09-13T14:31:05;95996.03;;;21.89;57.70
53916;BME280;39827;49.652;18.770;2022-09-13T14:33:36;95995.19;;;22.01;56.02
53916;BME280;39827;49.652;18.770;2022-09-13T14:36:13;95995.66;;;22.03;53.81
53916;BME280;39827;49.652;18.770;2022-09-13T14:38:46;96000.16;;;21.99;58.29
53916;BME280;39827;49.652;18.770;2022-09-13T14:41:18;96003.22;;;21.44;58.53
53916;BME280;39827;49.652;18.770;2022-09-13T14:43:45;96004.31;;;21.02;57.23
53916;BME280;39827;49.652;18.770;2022-09-13T14:46:13;96002.25;;;21.36;56.57
53916;BME280;39827;49.652;18.770;2022-09-13T14:48:47;96002.38;;;21.68;61.28
53916;BME280;39827;49.652;18.770;2022-09-13T14:53:48;96010.41;;;21.93;59.81
53916;BME280;39827;49.652;18.770;2022-09-13T14:58:55;95999.22;;;22.07;57.08
53916;BME280;39827;49.652;18.770;2022-09-13T15:01:28;95993.00;;;21.91;57.63
53916;BME280;39827;49.652;18.770;2022-09-13T15:03:57;95998.72;;;21.48;61.94
53916;BME280;39827;49.652;18.770;2022-09-13T15:06:29;96003.25;;;21.19;58.24
53916;BME280;39827;49.652;18.770;2022-09-13T15:11:54;96004.84;;;20.82;61.60
53916;BME280;39827;49.652;18.770;2022-09-13T15:14:26;96006.84;;;20.86;65.51
53916;BME280;39827;49.652;18.770;2022-09-13T15:16:53;96005.31;;;20.85;63.48
53916;BME280;39827;49.652;18.770;2022-09-13T15:21:47;96004.06;;;20.82;65.51
53916;BME280;39827;49.652;18.770;2022-09-13T15:24:20;96007.19;;;20.72;63.47
53916;BME280;39827;49.652;18.770;2022-09-13T15:29:17;96006.38;;;20.46;65.45
53916;BME280;39827;49.652;18.770;2022-09-13T15:31:43;95999.81;;;20.22;67.69
53916;BME280;39827;49.652;18.770;2022-09-13T15:36:46;95996.69;;;20.20;68.44
53916;BME280;39827;49.652;18.770;2022-09-13T15:39:19;95995.09;;;20.07;68.40
53916;BME280;39827;49.652;18.770;2022-09-13T15:41:56;95997.34;;;19.83;70.22
53916;BME280;39827;49.652;18.770;2022-09-13T15:44:22;95992.84;;;19.53;70.01
53916;BME280;39827;49.652;18.770;2022-09-13T15:46:51;95996.47;;;19.70;71.70
53916;BME280;39827;49.652;18.770;2022-09-13T15:49:25;95997.00;;;19.85;71.87
53916;BME280;39827;49.652;18.770;2022-09-13T15:51:56;95999.44;;;19.77;75.72
53916;BME280;39827;49.652;18.770;2022-09-13T15:54:24;95997.81;;;19.64;76.21
53916;BME280;39827;49.652;18.770;2022-09-13T15:56:51;95999.22;;;18.88;81.28
53916;BME280;39827;49.652;18.770;2022-09-13T15:59:19;96003.47;;;19.20;80.09
53916;BME280;39827;49.652;18.770;2022-09-13T16:01:47;96008.59;;;19.34;78.63
53916;BME280;39827;49.652;18.770;2022-09-13T16:04:13;96003.84;;;18.79;80.16
53916;BME280;39827;49.652;18.770;2022-09-13T16:06:39;96008.69;;;18.86;81.03
53916;BME280;39827;49.652;18.770;2022-09-13T16:09:23;95999.59;;;18.78;79.73
53916;BME280;39827;49.652;18.770;2022-09-13T16:11:50;96001.28;;;18.83;78.75
53916;BME280;39827;49.652;18.770;2022-09-13T16:14:16;95996.59;;;18.80;80.49